Terminal Aerodrome Forecast
Issued by NWS Charleston, WV

Current Version | Previous Version | Graphics & Text | Print | Product List | Glossary On
Versions: 1 2 3 4 5 6 7 8 9 10 11 12 13 14 15 16 17 18 19 20 21 22 23 24 25 26 27 28 29 30 31 32 33 34 35
000
FTUS41 KRLX 281427 AAA
TAFPKB
TAF AMD
KPKB 281427Z 2814/2912 VRB04KT 5SM SHRA BR VCTS SCT015 BKN040CB
      TEMPO 2814/2818 2SM SHRA BKN015
     FM281800 23004KT 5SM SHRA VCTS BKN020 OVC040CB
     FM282200 24005KT P6SM SHRA BKN025=

USA.gov is the U.S. government's official web portal to all federal, state and local government web resources and services.